Time;durP1;ratioP1;P1;durP2;ratioP2;P2;SDS_P1;SDS_P2;PMS_P1;PMS_P2;Temp;Humidity;BMP_temperature;BMP_pressure;BME280_temperature;BME280_humidity;BME280_pressure;Samples;Min_cycle;Max_cycle;Signal;HPM_P1;HPM_P2
2021/05/29 00:01:22;;;;;;;43.20;28.80;;;;;;;;;;5042598;28;20747;-84
2021/05/29 00:03:49;;;;;;;40.15;26.02;;;;;;;;;;5042839;28;20391;-82
2021/05/29 00:06:16;;;;;;;39.53;26.10;;;;;;;;;;5041671;28;20475;-83
2021/05/29 00:08:43;;;;;;;40.50;24.98;;;;;;;;;;5041125;28;20403;-81
2021/05/29 00:11:11;;;;;;;38.85;25.13;;;;;;;;;;5039486;28;20876;-83
2021/05/29 00:13:38;;;;;;;39.22;25.85;;;;;;;;;;5035465;28;20497;-81
2021/05/29 00:16:05;;;;;;;39.88;25.48;;;;;;;;;;5036509;28;20409;-82
2021/05/29 00:18:32;;;;;;;35.80;24.45;;;;;;;;;;5035426;28;20400;-81
2021/05/29 00:20:58;;;;;;;37.93;24.97;;;;;;;;;;5035085;28;20658;-82
2021/05/29 00:23:25;;;;;;;36.72;24.30;;;;;;;;;;5035723;28;20411;-81
2021/05/29 00:25:51;;;;;;;37.90;24.90;;;;;;;;;;5037236;28;20395;-83
2021/05/29 00:28:18;;;;;;;36.10;24.27;;;;;;;;;;5035754;28;20424;-84
2021/05/29 00:30:46;;;;;;;36.17;24.83;;;;;;;;;;5034062;28;20445;-86
2021/05/29 00:33:13;;;;;;;33.72;23.45;;;;;;;;;;5039199;28;20425;-82
2021/05/29 00:35:39;;;;;;;34.63;23.10;;;;;;;;;;5041432;28;20476;-84
2021/05/29 00:38:06;;;;;;;35.72;23.83;;;;;;;;;;5046636;28;20399;-82
2021/05/29 00:40:33;;;;;;;35.83;23.48;;;;;;;;;;5043318;28;20403;-84
2021/05/29 00:43:00;;;;;;;33.45;23.23;;;;;;;;;;5038503;28;20411;-84
2021/05/29 00:45:27;;;;;;;33.53;22.80;;;;;;;;;;5039504;28;20412;-85
2021/05/29 00:47:55;;;;;;;33.27;23.20;;;;;;;;;;5039306;28;20902;-84
2021/05/29 00:50:22;;;;;;;34.10;23.03;;;;;;;;;;5039175;28;20423;-84
2021/05/29 00:52:49;;;;;;;33.65;23.17;;;;;;;;;;5039276;28;20458;-82
2021/05/29 00:55:16;;;;;;;35.13;24.88;;;;;;;;;;5039060;28;20404;-84
2021/05/29 00:57:45;;;;;;;34.63;24.15;;;;;;;;;;5040264;28;20407;-84
2021/05/29 01:00:13;;;;;;;34.35;23.77;;;;;;;;;;5039106;28;20404;-84
2021/05/29 01:02:41;;;;;;;35.15;23.35;;;;;;;;;;5036370;28;21316;-84
2021/05/29 01:05:10;;;;;;;29.95;21.55;;;;;;;;;;5036100;28;20834;-82
2021/05/29 01:07:37;;;;;;;32.80;21.85;;;;;;;;;;5036204;28;20404;-82
2021/05/29 01:10:06;;;;;;;31.88;21.02;;;;;;;;;;5036061;28;20432;-82
2021/05/29 01:12:32;;;;;;;33.28;20.67;;;;;;;;;;5035443;28;20880;-83
2021/05/29 01:15:00;;;;;;;34.28;22.27;;;;;;;;;;5036080;28;20403;-82
2021/05/29 01:17:29;;;;;;;40.70;23.48;;;;;;;;;;5038168;28;20409;-82
2021/05/29 01:19:57;;;;;;;37.45;23.55;;;;;;;;;;5038174;28;20409;-84
2021/05/29 01:22:38;;;;;;;38.80;24.38;;;;;;;;;;5038240;28;20479;-83
2021/05/29 01:25:09;;;;;;;39.65;24.63;;;;;;;;;;5038676;28;20412;-83
2021/05/29 01:27:35;;;;;;;40.53;24.85;;;;;;;;;;5035126;28;20406;-83
2021/05/29 01:30:02;;;;;;;37.80;23.42;;;;;;;;;;5038365;28;20899;-81
2021/05/29 01:32:33;;;;;;;37.45;22.95;;;;;;;;;;5037883;28;20432;-82
2021/05/29 01:35:01;;;;;;;37.28;23.90;;;;;;;;;;5037961;28;20416;-84
2021/05/29 01:37:30;;;;;;;37.20;23.55;;;;;;;;;;5037473;28;20405;-82
2021/05/29 01:39:57;;;;;;;36.10;22.90;;;;;;;;;;5037043;28;20401;-84
2021/05/29 01:42:25;;;;;;;34.17;22.00;;;;;;;;;;5037292;28;20434;-83
2021/05/29 01:44:52;;;;;;;30.25;19.95;;;;;;;;;;5034496;28;20404;-82
2021/05/29 01:47:18;;;;;;;27.70;18.30;;;;;;;;;;5034832;28;20411;-84
2021/05/29 01:49:45;;;;;;;26.52;17.52;;;;;;;;;;5034220;28;20405;-84
2021/05/29 01:52:11;;;;;;;25.58;16.00;;;;;;;;;;5034450;28;20408;-83
2021/05/29 01:54:38;;;;;;;25.17;15.98;;;;;;;;;;5033588;28;20406;-83
2021/05/29 01:57:06;;;;;;;27.27;17.93;;;;;;;;;;5034757;28;20479;-83
2021/05/29 01:59:32;;;;;;;29.35;19.00;;;;;;;;;;5035710;28;20404;-83
2021/05/29 02:01:59;;;;;;;31.60;19.35;;;;;;;;;;5037874;28;20401;-82
2021/05/29 02:04:25;;;;;;;31.73;18.38;;;;;;;;;;5038820;28;20408;-83
2021/05/29 02:06:52;;;;;;;25.65;16.85;;;;;;;;;;5035887;28;20485;-84
2021/05/29 02:09:19;;;;;;;25.02;15.90;;;;;;;;;;5037616;28;20408;-83
2021/05/29 02:11:45;;;;;;;22.23;14.35;;;;;;;;;;5036227;28;20469;-82
2021/05/29 02:14:13;;;;;;;22.77;14.77;;;;;;;;;;5035887;28;20401;-83
2021/05/29 02:16:39;;;;;;;27.75;17.35;;;;;;;;;;5037336;28;20475;-83
2021/05/29 02:19:06;;;;;;;27.20;17.27;;;;;;;;;;5035829;28;20835;-84
2021/05/29 02:21:32;;;;;;;22.73;15.02;;;;;;;;;;5037955;28;21014;-83
2021/05/29 02:23:59;;;;;;;26.13;17.10;;;;;;;;;;5034817;28;20754;-84
2021/05/29 02:26:25;;;;;;;25.23;15.45;;;;;;;;;;5038103;28;20756;-82
2021/05/29 02:28:55;;;;;;;24.52;16.38;;;;;;;;;;5035489;28;20474;-84
2021/05/29 02:31:24;;;;;;;20.08;14.45;;;;;;;;;;5037932;28;20411;-83
2021/05/29 02:33:50;;;;;;;16.60;11.85;;;;;;;;;;5037940;28;20819;-84
2021/05/29 02:36:17;;;;;;;16.42;11.52;;;;;;;;;;5035485;28;20932;-84
2021/05/29 02:38:43;;;;;;;15.18;10.45;;;;;;;;;;5041210;28;20882;-83
2021/05/29 02:41:12;;;;;;;13.68;9.75;;;;;;;;;;5037015;28;20446;-83
2021/05/29 02:43:39;;;;;;;13.30;9.20;;;;;;;;;;5038006;28;20407;-83
2021/05/29 02:46:06;;;;;;;12.68;9.45;;;;;;;;;;5032201;28;20405;-83
2021/05/29 02:48:34;;;;;;;12.57;9.05;;;;;;;;;;5034571;28;20403;-85
2021/05/29 02:51:00;;;;;;;11.90;9.02;;;;;;;;;;5031440;28;20912;-83
2021/05/29 02:53:27;;;;;;;10.63;8.43;;;;;;;;;;5034934;28;20804;-84
2021/05/29 02:55:53;;;;;;;11.68;8.30;;;;;;;;;;5034354;28;20407;-83
2021/05/29 02:58:20;;;;;;;10.27;8.25;;;;;;;;;;5032632;28;20898;-83
2021/05/29 03:00:48;;;;;;;11.00;8.30;;;;;;;;;;5033233;28;20409;-84
2021/05/29 03:03:15;;;;;;;11.88;8.35;;;;;;;;;;5033276;28;20407;-84
2021/05/29 03:05:44;;;;;;;11.48;7.85;;;;;;;;;;5032381;28;20739;-84
2021/05/29 03:08:13;;;;;;;11.23;7.85;;;;;;;;;;5016092;28;20756;-84
2021/05/29 03:10:41;;;;;;;12.50;9.00;;;;;;;;;;5032883;28;20414;-84
2021/05/29 03:13:08;;;;;;;15.15;9.18;;;;;;;;;;5032955;28;20425;-85
2021/05/29 03:15:35;;;;;;;17.00;10.88;;;;;;;;;;5035575;28;20400;-84
2021/05/29 03:18:04;;;;;;;15.90;10.53;;;;;;;;;;5033613;28;20409;-83
2021/05/29 03:20:30;;;;;;;17.33;12.13;;;;;;;;;;5038147;28;20407;-84
2021/05/29 03:22:58;;;;;;;21.98;14.40;;;;;;;;;;5036357;28;20407;-84
2021/05/29 03:25:25;;;;;;;20.02;12.63;;;;;;;;;;5029362;28;20400;-83
2021/05/29 03:27:53;;;;;;;23.95;14.95;;;;;;;;;;5029827;28;20520;-84
2021/05/29 03:30:22;;;;;;;22.13;14.43;;;;;;;;;;5031852;28;20400;-82
2021/05/29 03:32:50;;;;;;;19.40;12.60;;;;;;;;;;5032793;28;20423;-84
2021/05/29 03:35:16;;;;;;;15.55;10.75;;;;;;;;;;5032715;28;20415;-82
2021/05/29 03:37:43;;;;;;;16.65;10.40;;;;;;;;;;5032230;28;20953;-83
2021/05/29 03:40:12;;;;;;;13.32;9.52;;;;;;;;;;5033486;28;20891;-84
2021/05/29 03:42:39;;;;;;;13.18;8.63;;;;;;;;;;5031613;28;20881;-83
2021/05/29 03:45:06;;;;;;;11.52;8.05;;;;;;;;;;5034079;28;20399;-83
2021/05/29 03:47:34;;;;;;;10.15;7.70;;;;;;;;;;5030389;28;20409;-83
2021/05/29 03:50:00;;;;;;;11.45;7.55;;;;;;;;;;5033920;28;20651;-84
2021/05/29 03:52:27;;;;;;;8.90;7.25;;;;;;;;;;5031032;28;20933;-84
2021/05/29 03:54:53;;;;;;;8.48;6.53;;;;;;;;;;5033360;28;20884;-83
2021/05/29 03:57:20;;;;;;;9.30;6.50;;;;;;;;;;5032636;28;20399;-84
2021/05/29 03:59:47;;;;;;;8.32;6.30;;;;;;;;;;5032693;28;20460;-84
2021/05/29 04:02:13;;;;;;;8.00;6.75;;;;;;;;;;5032081;28;20449;-84
2021/05/29 04:04:40;;;;;;;6.97;6.13;;;;;;;;;;5033535;28;20418;-84
2021/05/29 04:07:06;;;;;;;10.68;6.60;;;;;;;;;;5038375;28;20401;-84
2021/05/29 04:09:33;;;;;;;6.97;5.95;;;;;;;;;;5028736;28;20405;-84
2021/05/29 04:11:59;;;;;;;10.15;6.93;;;;;;;;;;5031989;28;20965;-84
2021/05/29 04:14:27;;;;;;;10.73;7.18;;;;;;;;;;5033313;28;20936;-85
2021/05/29 04:16:53;;;;;;;9.73;7.28;;;;;;;;;;5030766;28;20774;-84
2021/05/29 04:19:20;;;;;;;8.30;7.28;;;;;;;;;;5039373;28;20439;-84
2021/05/29 04:21:46;;;;;;;10.03;7.60;;;;;;;;;;5038570;28;20453;-85
2021/05/29 04:24:13;;;;;;;11.18;7.50;;;;;;;;;;5031320;28;20823;-84
2021/05/29 04:26:39;;;;;;;10.05;7.30;;;;;;;;;;5031072;28;20490;-84
2021/05/29 04:29:12;;;;;;;10.93;7.35;;;;;;;;;;5035676;28;20877;-84
2021/05/29 04:31:39;;;;;;;8.70;7.50;;;;;;;;;;5037930;28;20407;-84
2021/05/29 04:34:05;;;;;;;10.32;6.82;;;;;;;;;;5036005;28;20405;-85
2021/05/29 04:36:32;;;;;;;8.95;6.72;;;;;;;;;;5036531;28;20890;-85
2021/05/29 04:38:59;;;;;;;7.07;5.60;;;;;;;;;;5037630;28;20476;-85
2021/05/29 04:41:25;;;;;;;7.75;6.30;;;;;;;;;;5034099;28;20401;-85
2021/05/29 04:43:52;;;;;;;8.27;5.68;;;;;;;;;;5037614;28;20417;-84
2021/05/29 04:46:19;;;;;;;9.55;5.75;;;;;;;;;;5036801;28;20402;-85
2021/05/29 04:48:46;;;;;;;6.85;5.45;;;;;;;;;;5035415;28;20865;-84
2021/05/29 04:51:13;;;;;;;8.13;5.70;;;;;;;;;;5036388;28;20401;-85
2021/05/29 04:53:40;;;;;;;8.27;5.80;;;;;;;;;;5041068;28;20513;-84
2021/05/29 04:56:07;;;;;;;5.55;4.90;;;;;;;;;;5040462;28;20403;-84
2021/05/29 04:58:34;;;;;;;6.85;5.32;;;;;;;;;;5035469;28;20412;-84
2021/05/29 05:01:00;;;;;;;7.68;5.30;;;;;;;;;;5036969;28;20399;-84
2021/05/29 05:03:26;;;;;;;6.78;5.63;;;;;;;;;;5037778;28;20412;-84
2021/05/29 05:05:54;;;;;;;6.20;5.60;;;;;;;;;;5036382;28;20421;-84
2021/05/29 05:08:20;;;;;;;6.85;5.80;;;;;;;;;;5036916;28;20481;-84
2021/05/29 05:10:47;;;;;;;8.02;5.70;;;;;;;;;;5035829;28;20460;-84
2021/05/29 05:13:13;;;;;;;6.55;5.85;;;;;;;;;;5035172;28;20425;-84
2021/05/29 05:15:40;;;;;;;6.82;5.72;;;;;;;;;;5038225;28;20487;-84
2021/05/29 05:18:08;;;;;;;7.35;5.68;;;;;;;;;;5040059;28;20879;-83
2021/05/29 05:20:35;;;;;;;6.75;6.05;;;;;;;;;;5034111;28;20416;-83
2021/05/29 05:23:04;;;;;;;8.73;6.50;;;;;;;;;;5033749;28;20455;-84
2021/05/29 05:25:32;;;;;;;8.18;6.65;;;;;;;;;;5031840;28;20405;-84
2021/05/29 05:27:59;;;;;;;7.28;6.18;;;;;;;;;;5031175;28;20409;-84
2021/05/29 05:30:27;;;;;;;6.50;5.90;;;;;;;;;;5036354;28;20423;-85
2021/05/29 05:32:54;;;;;;;7.07;6.38;;;;;;;;;;5037533;28;20789;-83
2021/05/29 05:35:22;;;;;;;7.00;6.30;;;;;;;;;;5029706;28;20412;-84
2021/05/29 05:37:48;;;;;;;7.78;6.13;;;;;;;;;;5030386;28;20399;-83
2021/05/29 05:40:17;;;;;;;8.30;6.47;;;;;;;;;;5034542;28;20406;-84
2021/05/29 05:42:44;;;;;;;7.50;6.40;;;;;;;;;;5030336;28;20408;-83
2021/05/29 05:45:11;;;;;;;8.15;6.50;;;;;;;;;;5029894;28;20409;-83
2021/05/29 05:47:38;;;;;;;8.13;6.70;;;;;;;;;;5036032;28;20755;-84
2021/05/29 05:50:06;;;;;;;7.40;6.43;;;;;;;;;;5030177;28;20805;-86
2021/05/29 05:52:32;;;;;;;7.88;6.40;;;;;;;;;;5031937;28;20479;-84
2021/05/29 05:54:59;;;;;;;7.53;6.45;;;;;;;;;;5034315;28;20472;-84
2021/05/29 05:57:26;;;;;;;8.77;6.27;;;;;;;;;;5040094;28;21323;-84
2021/05/29 05:59:53;;;;;;;9.02;6.20;;;;;;;;;;5039505;28;20466;-84
2021/05/29 06:02:19;;;;;;;10.25;7.00;;;;;;;;;;5033991;28;20920;-84
2021/05/29 06:04:46;;;;;;;7.78;6.65;;;;;;;;;;5035450;28;20486;-84
2021/05/29 06:07:12;;;;;;;7.73;6.47;;;;;;;;;;5041796;28;21065;-84
2021/05/29 06:09:39;;;;;;;6.70;6.00;;;;;;;;;;5039463;28;20868;-83
2021/05/29 06:12:06;;;;;;;8.95;6.07;;;;;;;;;;5038501;28;20764;-84
2021/05/29 06:20:05;;;;;;;6.63;5.53;;;;;;;;;;5039133;28;20490;-84
2021/05/29 06:22:32;;;;;;;9.77;5.88;;;;;;;;;;5039074;28;20427;-84
2021/05/29 06:24:58;;;;;;;8.43;5.32;;;;;;;;;;5038859;28;20443;-84
2021/05/29 06:27:25;;;;;;;5.80;5.10;;;;;;;;;;5040418;28;20404;-84
2021/05/29 06:29:52;;;;;;;5.47;4.97;;;;;;;;;;5040101;28;20408;-84
2021/05/29 06:32:19;;;;;;;7.57;5.65;;;;;;;;;;5040543;28;20519;-84
2021/05/29 06:34:45;;;;;;;6.47;5.60;;;;;;;;;;5043832;28;20473;-84
2021/05/29 06:37:11;;;;;;;6.32;5.40;;;;;;;;;;5044435;28;20408;-84
2021/05/29 06:39:38;;;;;;;7.95;6.10;;;;;;;;;;5046294;28;20421;-81
2021/05/29 06:42:05;;;;;;;6.47;5.72;;;;;;;;;;5045829;28;20895;-84
2021/05/29 06:44:32;;;;;;;7.47;5.40;;;;;;;;;;5039834;28;20825;-85
2021/05/29 06:46:59;;;;;;;5.50;4.70;;;;;;;;;;5039379;28;20410;-84
2021/05/29 06:49:26;;;;;;;8.02;5.13;;;;;;;;;;5040108;28;20415;-84
2021/05/29 06:51:59;;;;;;;5.47;4.97;;;;;;;;;;5036499;28;20409;-85
2021/05/29 06:54:35;;;;;;;7.30;5.00;;;;;;;;;;5037454;28;20464;-84
2021/05/29 06:59:47;;;;;;;6.82;5.03;;;;;;;;;;5033663;28;20441;-85
2021/05/29 07:02:14;;;;;;;5.25;4.75;;;;;;;;;;5037959;28;20549;-85
2021/05/29 07:04:40;;;;;;;5.68;5.10;;;;;;;;;;5036947;28;20408;-85
2021/05/29 07:07:07;;;;;;;5.95;4.90;;;;;;;;;;5034863;28;20486;-85
2021/05/29 07:09:34;;;;;;;6.80;5.10;;;;;;;;;;5037387;28;20401;-85
2021/05/29 07:12:00;;;;;;;5.47;4.30;;;;;;;;;;5037192;28;20932;-85
2021/05/29 07:14:29;;;;;;;5.00;4.50;;;;;;;;;;5038818;28;20426;-85
2021/05/29 07:16:56;;;;;;;6.38;4.13;;;;;;;;;;5037847;28;20408;-85
2021/05/29 07:19:25;;;;;;;4.60;3.90;;;;;;;;;;5041474;28;20483;-85
2021/05/29 07:21:52;;;;;;;6.90;3.78;;;;;;;;;;5037636;28;20433;-85
2021/05/29 07:24:19;;;;;;;6.95;4.20;;;;;;;;;;5037078;28;20494;-85
2021/05/29 07:26:47;;;;;;;6.57;3.85;;;;;;;;;;5041429;28;20403;-85
2021/05/29 07:29:14;;;;;;;3.40;3.00;;;;;;;;;;5039996;28;20953;-85
2021/05/29 07:31:41;;;;;;;4.90;2.97;;;;;;;;;;5037543;28;20395;-85
2021/05/29 07:34:07;;;;;;;6.75;3.20;;;;;;;;;;5038902;28;20427;-86
2021/05/29 07:36:35;;;;;;;6.45;3.60;;;;;;;;;;5038353;28;20414;-85
2021/05/29 07:39:01;;;;;;;3.97;3.40;;;;;;;;;;5037549;28;20405;-87
2021/05/29 07:41:28;;;;;;;4.88;3.30;;;;;;;;;;5038946;28;20863;-87
2021/05/29 07:43:54;;;;;;;5.75;3.08;;;;;;;;;;5040909;28;20806;-87
2021/05/29 07:46:21;;;;;;;2.70;2.50;;;;;;;;;;5039748;28;21026;-87
2021/05/29 07:48:50;;;;;;;3.55;2.45;;;;;;;;;;5039308;28;20499;-87
2021/05/29 07:51:17;;;;;;;3.13;1.90;;;;;;;;;;5036816;28;20399;-87
2021/05/29 07:53:45;;;;;;;3.75;3.08;;;;;;;;;;5038642;28;21017;-88
2021/05/29 07:56:14;;;;;;;4.20;2.35;;;;;;;;;;5039249;28;20411;-87
2021/05/29 07:58:41;;;;;;;1.70;1.60;;;;;;;;;;5038806;28;20923;-87
2021/05/29 08:01:09;;;;;;;2.00;1.52;;;;;;;;;;5039079;28;20419;-87
2021/05/29 08:03:36;;;;;;;2.90;1.60;;;;;;;;;;5038124;28;20481;-87
2021/05/29 08:06:07;;;;;;;2.80;2.00;;;;;;;;;;5038485;28;20407;-88
2021/05/29 08:08:34;;;;;;;4.40;2.40;;;;;;;;;;5040178;28;20405;-87
2021/05/29 08:11:03;;;;;;;2.70;2.15;;;;;;;;;;5038596;28;20486;-87
2021/05/29 08:13:30;;;;;;;3.13;2.50;;;;;;;;;;5044130;28;20962;-87
2021/05/29 08:15:56;;;;;;;3.65;2.58;;;;;;;;;;5043964;28;20876;-87
2021/05/29 08:18:23;;;;;;;3.15;2.00;;;;;;;;;;5041827;28;20395;-87
2021/05/29 08:20:51;;;;;;;3.72;2.45;;;;;;;;;;5042354;28;21145;-87
2021/05/29 08:23:18;;;;;;;3.70;2.72;;;;;;;;;;5040522;28;20408;-87
2021/05/29 08:25:46;;;;;;;6.47;3.10;;;;;;;;;;5049607;28;20404;-87
2021/05/29 08:28:14;;;;;;;3.20;2.85;;;;;;;;;;5051359;28;20403;-87
2021/05/29 08:30:40;;;;;;;4.03;3.13;;;;;;;;;;5044458;28;20430;-87
2021/05/29 08:33:07;;;;;;;4.57;3.60;;;;;;;;;;5040526;28;20502;-87
2021/05/29 08:35:35;;;;;;;6.45;3.70;;;;;;;;;;5044178;28;20482;-86
2021/05/29 08:38:01;;;;;;;3.63;3.00;;;;;;;;;;5042975;28;20403;-87
2021/05/29 08:40:28;;;;;;;4.28;3.40;;;;;;;;;;5040716;28;20456;-83
2021/05/29 08:42:54;;;;;;;4.60;3.47;;;;;;;;;;5038097;28;20965;-83
2021/05/29 08:45:22;;;;;;;4.00;2.67;;;;;;;;;;5035462;28;21075;-82
2021/05/29 08:47:49;;;;;;;5.05;3.10;;;;;;;;;;5031874;28;20401;-85
2021/05/29 08:50:17;;;;;;;3.42;2.80;;;;;;;;;;5029251;28;20399;-84
2021/05/29 08:52:43;;;;;;;4.88;3.03;;;;;;;;;;5037229;28;20564;-84
2021/05/29 08:55:13;;;;;;;2.60;2.25;;;;;;;;;;5036373;28;20740;-83
2021/05/29 08:57:40;;;;;;;3.53;2.43;;;;;;;;;;5033175;28;20575;-85
2021/05/29 09:00:09;;;;;;;2.75;2.00;;;;;;;;;;5031064;28;20703;-85
2021/05/29 09:02:55;;;;;;;2.70;1.80;;;;;;;;;;5035768;28;20673;-84
2021/05/29 09:05:22;;;;;;;2.03;1.80;;;;;;;;;;5037747;28;20404;-84
2021/05/29 09:08:02;;;;;;;2.95;1.60;;;;;;;;;;5041572;28;21084;-84
2021/05/29 09:10:29;;;;;;;1.77;1.30;;;;;;;;;;5034361;28;20402;-84
2021/05/29 09:13:10;;;;;;;1.23;1.13;;;;;;;;;;5036184;28;20447;-84
2021/05/29 09:15:50;;;;;;;0.90;0.90;;;;;;;;;;5032259;28;20415;-84
2021/05/29 09:18:36;;;;;;;0.87;0.70;;;;;;;;;;5037598;28;20406;-84
2021/05/29 09:21:23;;;;;;;1.50;1.40;;;;;;;;;;5034927;28;20573;-84
2021/05/29 09:23:51;;;;;;;1.60;1.00;;;;;;;;;;5037726;28;20412;-84
2021/05/29 09:26:21;;;;;;;2.33;1.40;;;;;;;;;;5040699;28;20911;-83
2021/05/29 09:28:47;;;;;;;2.40;1.60;;;;;;;;;;5040133;28;20457;-83
2021/05/29 09:31:14;;;;;;;1.75;1.55;;;;;;;;;;5040663;28;20412;-84
2021/05/29 09:33:42;;;;;;;2.08;1.38;;;;;;;;;;5039452;28;20561;-82
2021/05/29 09:36:10;;;;;;;2.47;1.30;;;;;;;;;;5040384;28;20483;-82
2021/05/29 09:38:40;;;;;;;1.33;1.20;;;;;;;;;;5040896;28;20411;-81
2021/05/29 09:41:18;;;;;;;1.17;1.08;;;;;;;;;;5040041;28;20411;-80
2021/05/29 09:43:52;;;;;;;1.08;0.90;;;;;;;;;;5040848;28;20629;-82
2021/05/29 09:46:19;;;;;;;1.40;0.93;;;;;;;;;;5039168;28;20551;-85
2021/05/29 09:48:53;;;;;;;1.20;1.10;;;;;;;;;;5039091;28;20507;-82
2021/05/29 09:51:20;;;;;;;1.55;1.20;;;;;;;;;;5035425;28;20443;-77
2021/05/29 09:53:49;;;;;;;1.65;1.20;;;;;;;;;;5028283;28;20421;-80
2021/05/29 09:56:27;;;;;;;1.45;1.00;;;;;;;;;;5040660;28;20401;-80
2021/05/29 09:58:58;;;;;;;0.95;0.90;;;;;;;;;;5034840;28;20460;-80
2021/05/29 10:01:46;;;;;;;1.10;0.95;;;;;;;;;;5026881;28;20484;-81
2021/05/29 10:04:31;;;;;;;2.13;0.93;;;;;;;;;;5030728;28;20931;-80
2021/05/29 10:06:59;;;;;;;1.25;0.80;;;;;;;;;;5025709;28;20409;-80
2021/05/29 10:09:26;;;;;;;1.70;0.80;;;;;;;;;;5038311;28;20876;-82
2021/05/29 10:11:53;;;;;;;1.42;0.70;;;;;;;;;;5026238;28;20448;-80
2021/05/29 10:14:20;;;;;;;0.90;0.60;;;;;;;;;;5025879;28;20445;-80
2021/05/29 10:16:48;;;;;;;0.85;0.80;;;;;;;;;;5030466;28;20407;-79
2021/05/29 10:19:15;;;;;;;3.05;1.13;;;;;;;;;;5025791;28;20412;-79
2021/05/29 10:21:45;;;;;;;1.60;1.10;;;;;;;;;;5025700;28;20416;-79
2021/05/29 10:24:11;;;;;;;0.90;0.90;;;;;;;;;;5031103;28;20399;-79
2021/05/29 10:26:38;;;;;;;1.90;0.88;;;;;;;;;;5034005;28;20425;-80
2021/05/29 10:29:05;;;;;;;0.90;0.70;;;;;;;;;;5032057;28;21325;-80
2021/05/29 10:31:34;;;;;;;2.20;1.33;;;;;;;;;;5036034;28;20907;-79
2021/05/29 10:34:01;;;;;;;2.43;1.20;;;;;;;;;;5035701;28;20792;-80
2021/05/29 10:36:44;;;;;;;2.30;1.40;;;;;;;;;;5033151;28;20415;-79
2021/05/29 10:39:12;;;;;;;1.45;1.35;;;;;;;;;;5027127;28;20399;-78
2021/05/29 10:41:58;;;;;;;2.00;1.67;;;;;;;;;;5032563;28;20495;-77
2021/05/29 10:44:32;;;;;;;2.05;1.30;;;;;;;;;;5036225;28;20408;-80
2021/05/29 10:47:10;;;;;;;2.00;1.80;;;;;;;;;;5035238;28;20409;-80
2021/05/29 10:49:57;;;;;;;2.10;1.40;;;;;;;;;;5028618;28;20504;-80
2021/05/29 10:52:49;;;;;;;1.30;0.90;;;;;;;;;;5031191;28;20422;-79
2021/05/29 10:55:28;;;;;;;1.80;1.30;;;;;;;;;;5032525;28;20412;-79
2021/05/29 10:57:57;;;;;;;1.50;1.40;;;;;;;;;;5037561;28;20415;-79
2021/05/29 11:00:57;;;;;;;2.25;1.40;;;;;;;;;;5022969;28;20409;-77
2021/05/29 11:03:28;;;;;;;3.17;1.30;;;;;;;;;;5038404;28;20419;-76
2021/05/29 11:05:56;;;;;;;1.08;1.00;;;;;;;;;;5037785;28;20403;-77
2021/05/29 11:08:50;;;;;;;0.97;0.90;;;;;;;;;;5037412;28;20416;-79
2021/05/29 11:11:51;;;;;;;1.45;1.20;;;;;;;;;;5035829;28;20507;-79
2021/05/29 11:14:18;;;;;;;1.27;1.00;;;;;;;;;;5024702;28;20433;-79
2021/05/29 11:17:10;;;;;;;1.42;1.10;;;;;;;;;;5030483;28;20424;-78
2021/05/29 11:19:38;;;;;;;1.17;0.80;;;;;;;;;;5036157;28;20433;-79
2021/05/29 11:22:07;;;;;;;1.20;1.00;;;;;;;;;;5036186;28;20408;-78
2021/05/29 11:24:38;;;;;;;1.00;0.80;;;;;;;;;;5037932;28;20969;-80
2021/05/29 11:27:06;;;;;;;1.05;0.88;;;;;;;;;;5031584;28;20971;-80
2021/05/29 11:29:51;;;;;;;1.13;0.90;;;;;;;;;;5035789;28;20431;-80
2021/05/29 11:32:50;;;;;;;1.35;0.98;;;;;;;;;;5035890;28;21511;-79
2021/05/29 11:35:21;;;;;;;2.00;0.93;;;;;;;;;;5034414;28;20479;-79
2021/05/29 11:38:11;;;;;;;1.70;1.08;;;;;;;;;;5034977;28;20489;-79
2021/05/29 11:40:57;;;;;;;1.48;1.23;;;;;;;;;;5035733;28;20411;-78
2021/05/29 11:43:39;;;;;;;2.05;1.17;;;;;;;;;;5035512;28;20426;-80
2021/05/29 11:46:07;;;;;;;2.10;1.10;;;;;;;;;;5034916;28;20414;-79
2021/05/29 11:48:36;;;;;;;1.30;1.00;;;;;;;;;;5036732;28;20403;-80
2021/05/29 11:51:10;;;;;;;2.50;1.10;;;;;;;;;;5038513;28;20883;-78
2021/05/29 11:53:41;;;;;;;1.63;1.00;;;;;;;;;;5039105;28;20459;-80
2021/05/29 11:56:09;;;;;;;0.98;0.77;;;;;;;;;;5037007;28;20824;-79
2021/05/29 11:58:45;;;;;;;1.15;0.90;;;;;;;;;;5037515;28;20949;-80
2021/05/29 12:01:12;;;;;;;1.98;0.82;;;;;;;;;;5032106;28;21041;-79
2021/05/29 12:03:40;;;;;;;0.90;0.90;;;;;;;;;;5040137;28;20406;-79
2021/05/29 12:06:07;;;;;;;1.30;1.20;;;;;;;;;;5036693;28;20399;-83
2021/05/29 12:08:52;;;;;;;2.15;1.08;;;;;;;;;;5038094;28;20406;-81
2021/05/29 12:11:22;;;;;;;1.95;0.90;;;;;;;;;;5038795;28;20411;-79
2021/05/29 12:14:03;;;;;;;1.30;0.90;;;;;;;;;;5034468;28;20432;-79
2021/05/29 12:16:33;;;;;;;1.10;0.88;;;;;;;;;;5038653;28;20439;-78
2021/05/29 12:19:00;;;;;;;1.10;0.93;;;;;;;;;;5037575;28;21029;-80
2021/05/29 12:21:47;;;;;;;0.80;0.80;;;;;;;;;;5039676;28;20867;-79
2021/05/29 12:24:13;;;;;;;2.00;0.80;;;;;;;;;;5036958;28;20420;-78
2021/05/29 12:26:43;;;;;;;1.90;0.93;;;;;;;;;;5039306;28;20492;-77
2021/05/29 12:29:09;;;;;;;1.20;1.00;;;;;;;;;;5039983;28;20407;-80
2021/05/29 12:31:54;;;;;;;1.35;0.80;;;;;;;;;;5040017;28;20468;-79
2021/05/29 12:34:22;;;;;;;1.45;0.90;;;;;;;;;;5038598;28;20926;-79
2021/05/29 12:36:56;;;;;;;1.58;0.90;;;;;;;;;;5041046;28;20453;-77
2021/05/29 12:39:23;;;;;;;0.90;0.90;;;;;;;;;;5039353;28;20412;-78
2021/05/29 12:41:50;;;;;;;1.00;0.90;;;;;;;;;;5035625;28;20415;-80
2021/05/29 12:44:19;;;;;;;1.63;1.17;;;;;;;;;;5037367;28;20409;-76
2021/05/29 12:46:52;;;;;;;1.58;0.90;;;;;;;;;;5035994;28;20597;-78
2021/05/29 12:49:20;;;;;;;1.80;0.65;;;;;;;;;;5044032;28;20426;-77
2021/05/29 12:51:48;;;;;;;1.67;0.82;;;;;;;;;;5038365;28;20506;-80
2021/05/29 12:54:15;;;;;;;1.55;0.90;;;;;;;;;;5041124;28;20431;-81
2021/05/29 12:56:53;;;;;;;1.38;0.90;;;;;;;;;;5041269;28;20395;-80
2021/05/29 12:59:23;;;;;;;1.33;0.90;;;;;;;;;;5039599;28;20412;-77
2021/05/29 13:01:59;;;;;;;2.53;0.80;;;;;;;;;;5040384;28;20405;-79
2021/05/29 13:07:25;;;;;;;1.77;0.90;;;;;;;;;;5040621;28;20395;-78
2021/05/29 13:09:58;;;;;;;1.30;1.20;;;;;;;;;;5039844;28;20415;-80
2021/05/29 13:12:26;;;;;;;1.17;0.90;;;;;;;;;;5041259;28;20404;-78
2021/05/29 13:14:52;;;;;;;1.35;0.90;;;;;;;;;;5040164;28;20428;-78
2021/05/29 13:17:26;;;;;;;1.40;1.02;;;;;;;;;;5036677;28;20414;-79
2021/05/29 13:19:56;;;;;;;2.17;1.00;;;;;;;;;;5043847;28;20415;-79
2021/05/29 13:22:24;;;;;;;2.50;1.10;;;;;;;;;;5042491;28;20400;-77
2021/05/29 13:24:52;;;;;;;2.25;1.00;;;;;;;;;;5038287;28;20404;-78
2021/05/29 13:27:33;;;;;;;1.40;1.15;;;;;;;;;;5039798;28;20982;-78
2021/05/29 13:30:06;;;;;;;1.88;1.20;;;;;;;;;;5040339;28;20406;-79
2021/05/29 13:32:33;;;;;;;1.40;1.20;;;;;;;;;;5036609;28;20400;-79
2021/05/29 13:35:00;;;;;;;1.70;1.27;;;;;;;;;;5036221;28;20407;-78
2021/05/29 13:37:26;;;;;;;1.77;1.23;;;;;;;;;;5035523;28;20396;-79
2021/05/29 13:39:53;;;;;;;1.50;1.40;;;;;;;;;;5036464;28;20412;-81
2021/05/29 13:42:20;;;;;;;1.92;1.23;;;;;;;;;;5034284;28;20499;-80
2021/05/29 13:44:46;;;;;;;1.80;1.10;;;;;;;;;;5039039;28;20971;-78
2021/05/29 13:47:14;;;;;;;1.30;1.17;;;;;;;;;;5039704;28;20416;-80
2021/05/29 13:49:42;;;;;;;1.92;0.98;;;;;;;;;;5035334;28;20417;-78
2021/05/29 13:52:08;;;;;;;1.27;1.10;;;;;;;;;;5033895;28;20403;-78
2021/05/29 13:54:35;;;;;;;1.30;1.20;;;;;;;;;;5036117;28;20442;-77
2021/05/29 13:57:01;;;;;;;1.35;1.10;;;;;;;;;;5037653;28;20460;-77
2021/05/29 13:59:28;;;;;;;2.72;1.13;;;;;;;;;;5039888;28;20909;-78
2021/05/29 14:01:54;;;;;;;1.98;1.60;;;;;;;;;;5037832;28;20819;-79
2021/05/29 14:04:22;;;;;;;3.13;1.42;;;;;;;;;;5038912;28;20403;-78
2021/05/29 14:06:49;;;;;;;2.15;1.38;;;;;;;;;;5039949;28;20493;-78
2021/05/29 14:09:15;;;;;;;1.58;1.20;;;;;;;;;;5034774;28;20406;-78
2021/05/29 14:11:43;;;;;;;8.77;1.70;;;;;;;;;;5032226;28;20875;-77
2021/05/29 14:14:10;;;;;;;1.38;1.20;;;;;;;;;;5035970;28;20425;-77
2021/05/29 14:16:37;;;;;;;2.35;1.40;;;;;;;;;;5034333;28;20404;-79
2021/05/29 14:19:04;;;;;;;3.20;1.30;;;;;;;;;;5039177;28;20882;-78
2021/05/29 14:21:31;;;;;;;2.58;1.35;;;;;;;;;;5039720;28;20407;-80
2021/05/29 14:23:58;;;;;;;2.30;1.40;;;;;;;;;;5033807;28;20892;-78
2021/05/29 14:26:30;;;;;;;1.92;1.20;;;;;;;;;;5028159;28;20407;-78
2021/05/29 14:28:57;;;;;;;4.00;1.30;;;;;;;;;;5033314;28;20407;-79
2021/05/29 14:31:23;;;;;;;2.45;1.20;;;;;;;;;;5036934;28;20469;-77
2021/05/29 14:33:50;;;;;;;1.60;1.30;;;;;;;;;;5028612;28;20421;-78
2021/05/29 14:36:20;;;;;;;2.10;1.65;;;;;;;;;;5035068;28;20413;-79
2021/05/29 14:38:48;;;;;;;1.63;1.40;;;;;;;;;;5033186;28;20439;-77
2021/05/29 14:41:15;;;;;;;2.38;1.45;;;;;;;;;;5034166;28;20561;-78
2021/05/29 14:43:43;;;;;;;2.00;1.30;;;;;;;;;;5030655;28;20416;-79
2021/05/29 14:46:09;;;;;;;1.58;1.30;;;;;;;;;;5026077;28;20394;-77
2021/05/29 14:48:38;;;;;;;2.95;1.75;;;;;;;;;;5024740;28;20417;-79
2021/05/29 14:51:17;;;;;;;2.78;1.40;;;;;;;;;;5031393;28;20435;-79
2021/05/29 14:53:46;;;;;;;1.67;1.40;;;;;;;;;;5033972;28;21284;-78
2021/05/29 14:56:14;;;;;;;2.40;2.03;;;;;;;;;;5035497;28;20436;-78
2021/05/29 14:58:41;;;;;;;5.20;4.80;;;;;;;;;;5033652;28;20418;-78